Birmingham, AL (35214)

7:23 AM CDT on September 18, 2014 (GMT -0500)
Nucor Steel Birmingham | Change Station
CLOSE
Current Station
Personal Weather Station
Location: Birmingham, AL
Elevation: 562 ft
Nearby Weather Stations

Elev 562 ft 33.55 °N, 86.81 °W | Updated 3 seconds ago

Partly Cloudy
Partly Cloudy
64.2 °F
Feels Like 64.2 °F
N
2.0
Wind Variable Wind from ENE
Gusts 3.0 mph

Today
High -- | Low -- °F
--% Chance of Precip.
Yesterday
High -- | Low -- °F
Precip. -- in
6:32 AM 6:49 PM
Waning Crescent, 27% visible
Pressure 29.97 in
Visibility 10.0 miles
Clouds Scattered Clouds 15000 ft
Mostly Cloudy 25000 ft
Dew Point 59 °F
Humidity 83%
Rainfall 0.00 in
Snow Depth Not available.
UV 0.0 out of 12
Pollen 8.40 out of 12
Ozone Good
PM2.5 Moderate
Flu Activity Not available.
METAR KBHM 181153Z 03005KT 10SM SCT150 BKN250 18/14 A2999 RMK AO2 SLP148 T01830139 10200 20167 53010

More Conditions Fewer Conditions

Pressure 29.97 in
Visibility 10.0 miles
Clouds Scattered Clouds 15000 ft
Mostly Cloudy 25000 ft
Dew Point 59 °F
Humidity 83%
Rainfall 0.00 in
Snow Depth Not available.
UV 0.0 out of 12
Pollen 8.40 out of 12
Ozone Good
PM2.5 Moderate
Flu Activity Not available.
METAR KBHM 181153Z 03005KT 10SM SCT150 BKN250 18/14 A2999 RMK AO2 SLP148 T01830139 10200 20167 53010

More Conditions Fewer Conditions

10-Day Weather Forecast

Almanac

Astronomy

Sep. 18, 2014 Rise Set
Actual Time 6:32 AM CDT 6:49 PM CDT
Civil Twilight 6:08 AM CDT 7:14 PM CDT
Nautical Twilight 5:38 AM CDT 7:43 PM CDT
Astronomical Twilight 5:09 AM CDT 8:13 PM CDT
Moon 1:35 AM CDT 3:30 PM CDT
Length of Visible Light 13h 06m
Length of Day
12h 16m
Tomorrow will be 2m 4s shorter.
Waning Crescent, 27% of the Moon is Illuminated
Today
Waning Crescent
Sep 24
New
Oct 1
First Quarter
Oct 8
Full
Oct 15
Last Quarter

Today's Extremes

State Highs State Lows

Community

WunderPhotos

Upload Photos

1,754,333 photos uploaded!

Nearby

Air Quality

  Air Quality AQ Index Pollutant
Yesterday Good
PM10
Yesterday Good
OZONE
Current Moderate
PM2.5
Current Good
OZONE
Thursday Moderate
PM2.5
Thursday Good
OZONE

Snow Depth

Station Depth Elevation
No new snow has been reported.

Earthquake Activity

City Distance Mag. Time & Date
No recent earthquake activity has been reported nearby.
Minimum magnitude displayed is 2.5.

Coastal Water Temperatures

Place Temperature
No Stations Reporting

Nearby Weather Stations